Avoca, New York
Current Conditions -  °F | °C
As of 1:54 PM on Saturday 25 Oct 2014 (Local Time) from KDSV Reporting Station
Overcast Overcast  
Wind Chill: 67°   Ceiling: 6000
Heat Index: 67°   Visibility: 10mi
Dew Point: 38°   Wind: 12mph
Humidity: 34%   Direction: 260°W
Pressure: 29.65"   Gusts: 22mph
Location:  42.41°N, 77.42°W
Report Text: KDSV 251754Z AUTO 26010G19KT 10SM OVC060 19/03 A2965 RMK AO2 SLP049 T01940033 10200 20094 56046
Loading
Personal Weather Stations






























Interactive Weather Map New forecast layout! Learn more

10-Day Weather Forecast

Advertisements
Track Severe Weather on mobile